createdAt,value
2022-07-28T00:01:20.186Z,43.70
2022-07-28T00:03:49.087Z,43.86
2022-07-28T00:06:17.264Z,43.78
2022-07-28T00:08:46.751Z,43.78
2022-07-28T00:11:14.734Z,43.78
2022-07-28T00:13:43.815Z,43.85
2022-07-28T00:16:11.711Z,43.81
2022-07-28T00:18:39.845Z,43.93
2022-07-28T00:21:07.705Z,44.27
2022-07-28T00:23:38.819Z,44.04
2022-07-28T00:26:09.063Z,43.88
2022-07-28T00:28:37.226Z,44.17
2022-07-28T00:31:08.105Z,44.29
2022-07-28T00:33:38.119Z,44.18
2022-07-28T00:36:11.399Z,44.27
2022-07-28T00:38:44.135Z,44.27
2022-07-28T00:41:14.189Z,44.38
2022-07-28T00:43:43.362Z,44.39
2022-07-28T00:46:35.756Z,44.21
2022-07-28T00:49:06.751Z,44.45
2022-07-28T00:51:34.770Z,44.57
2022-07-28T00:54:02.826Z,44.22
2022-07-28T00:56:32.608Z,44.53
2022-07-28T00:59:00.583Z,44.58
2022-07-28T01:01:28.535Z,44.62
2022-07-28T01:04:01.914Z,44.38
2022-07-28T01:06:38.999Z,44.80
2022-07-28T01:09:10.324Z,44.81
2022-07-28T01:11:44.223Z,44.85
2022-07-28T01:14:18.079Z,44.89
2022-07-28T01:16:49.198Z,44.72
2022-07-28T01:19:31.182Z,44.63
2022-07-28T01:21:59.288Z,44.68
2022-07-28T01:24:28.669Z,44.66
2022-07-28T01:27:00.110Z,45.13
2022-07-28T01:30:10.386Z,44.85
2022-07-28T01:32:41.727Z,45.25
2022-07-28T01:35:13.361Z,45.02
2022-07-28T01:37:45.033Z,44.93
2022-07-28T01:40:14.564Z,45.30
2022-07-28T01:42:44.916Z,45.36
2022-07-28T01:45:12.996Z,45.52
2022-07-28T01:47:42.977Z,45.58
2022-07-28T01:50:11.944Z,45.73
2022-07-28T01:52:40.042Z,45.68
2022-07-28T01:55:08.874Z,45.77
2022-07-28T01:57:37.224Z,45.77
2022-07-28T02:00:06.974Z,45.64
2022-07-28T02:02:34.943Z,45.79
2022-07-28T02:05:05.456Z,46.21
2022-07-28T02:07:33.461Z,46.08
2022-07-28T02:10:01.575Z,46.32
2022-07-28T02:12:29.782Z,46.17
2022-07-28T02:14:57.881Z,46.25
2022-07-28T02:17:27.801Z,46.36
2022-07-28T02:19:55.963Z,46.40
2022-07-28T02:22:25.439Z,46.42
2022-07-28T02:24:54.019Z,46.41
2022-07-28T02:27:24.094Z,46.66
2022-07-28T02:29:59.844Z,46.73
2022-07-28T02:32:33.059Z,46.75
2022-07-28T02:35:03.031Z,46.72
2022-07-28T02:37:35.974Z,46.87
2022-07-28T02:40:03.964Z,46.83
2022-07-28T02:42:33.483Z,46.84
2022-07-28T02:45:02.969Z,47.42
2022-07-28T02:47:34.783Z,47.17
2022-07-28T02:50:05.829Z,47.39
2022-07-28T02:52:35.371Z,47.53
2022-07-28T02:55:03.234Z,47.51
2022-07-28T02:57:32.364Z,47.78
2022-07-28T03:00:00.315Z,47.73
2022-07-28T03:02:30.833Z,47.83
2022-07-28T03:04:59.171Z,47.74
2022-07-28T03:07:30.109Z,48.00
2022-07-28T03:09:59.684Z,48.14
2022-07-28T03:12:27.790Z,48.25
2022-07-28T03:14:55.817Z,48.41
2022-07-28T03:17:23.832Z,48.52
2022-07-28T03:19:51.762Z,48.53
2022-07-28T03:22:19.829Z,48.58
2022-07-28T03:24:53.140Z,49.22
2022-07-28T03:27:26.096Z,48.49
2022-07-28T03:29:58.030Z,48.94
2022-07-28T03:32:29.007Z,49.04
2022-07-28T03:35:19.846Z,49.11
2022-07-28T03:37:51.189Z,49.13
2022-07-28T03:40:19.209Z,49.24
2022-07-28T03:42:48.841Z,49.26
2022-07-28T03:45:35.207Z,49.24
2022-07-28T03:48:09.327Z,49.53
2022-07-28T03:50:37.651Z,49.43
2022-07-28T03:53:05.853Z,49.86
2022-07-28T03:55:33.794Z,49.65
2022-07-28T03:58:03.466Z,49.75
2022-07-28T04:00:31.536Z,49.83
2022-07-28T04:02:59.932Z,49.75
2022-07-28T04:05:27.798Z,49.94
2022-07-28T04:07:55.852Z,49.83
2022-07-28T04:10:23.853Z,49.74
2022-07-28T04:12:52.691Z,49.86
2022-07-28T04:15:22.139Z,49.96
2022-07-28T04:17:50.404Z,49.77
2022-07-28T04:20:18.580Z,49.89
2022-07-28T04:22:47.022Z,49.86
2022-07-28T04:25:15.164Z,49.96
2022-07-28T04:27:43.506Z,49.97
2022-07-28T04:30:13.425Z,50.13
2022-07-28T04:32:43.152Z,50.12
2022-07-28T04:35:16.843Z,50.05
2022-07-28T04:37:45.915Z,49.91
2022-07-28T04:40:14.432Z,50.42
2022-07-28T04:42:42.491Z,50.34
2022-07-28T04:45:11.627Z,50.64
2022-07-28T04:47:39.705Z,50.61
2022-07-28T04:50:11.007Z,50.51
2022-07-28T04:52:40.079Z,50.77
2022-07-28T04:55:38.636Z,50.32
2022-07-28T04:58:06.858Z,50.35
2022-07-28T05:00:39.403Z,50.28
2022-07-28T05:03:07.332Z,50.30
2022-07-28T05:05:36.884Z,50.13
2022-07-28T05:08:05.016Z,50.31
2022-07-28T05:10:33.187Z,50.04
2022-07-28T05:13:06.108Z,50.40
2022-07-28T05:15:34.278Z,50.01
2022-07-28T05:18:02.296Z,50.18
2022-07-28T05:20:30.351Z,50.23
2022-07-28T05:22:59.755Z,50.06
2022-07-28T05:25:27.952Z,50.11
2022-07-28T05:27:56.090Z,49.82
2022-07-28T05:30:24.125Z,49.97
2022-07-28T05:32:53.930Z,49.95
2022-07-28T05:35:21.935Z,49.78
2022-07-28T05:37:50.048Z,49.64
2022-07-28T05:40:19.377Z,49.76
2022-07-28T05:42:48.617Z,49.28
2022-07-28T05:45:21.807Z,49.04
2022-07-28T05:47:52.271Z,48.95
2022-07-28T05:50:21.717Z,48.89
2022-07-28T05:52:52.669Z,48.42
2022-07-28T05:55:22.434Z,48.39
2022-07-28T05:57:51.868Z,47.80
2022-07-28T06:00:21.028Z,46.94
2022-07-28T06:02:50.175Z,46.03
2022-07-28T06:05:19.592Z,45.16
2022-07-28T06:07:48.229Z,44.04
2022-07-28T06:26:12.394Z,39.52
2022-07-28T06:28:40.783Z,39.45
2022-07-28T06:31:09.477Z,38.94
2022-07-28T06:33:39.471Z,38.25
2022-07-28T06:36:12.221Z,37.82
2022-07-28T06:38:40.788Z,37.35
2022-07-28T06:41:09.520Z,37.65
2022-07-28T06:43:39.291Z,37.58
2022-07-28T06:46:08.154Z,36.15
2022-07-28T06:48:37.878Z,36.37
2022-07-28T06:51:08.484Z,35.21
2022-07-28T06:53:37.165Z,35.73
2022-07-28T06:56:06.808Z,35.22
2022-07-28T06:58:36.345Z,34.95
2022-07-28T07:01:08.180Z,35.13
2022-07-28T07:03:36.485Z,34.79
2022-07-28T07:06:04.753Z,34.25
2022-07-28T07:08:34.665Z,33.85
2022-07-28T07:11:02.983Z,33.58
2022-07-28T07:13:31.460Z,32.45
2022-07-28T07:15:59.676Z,31.56
2022-07-28T07:18:28.054Z,31.05
2022-07-28T07:20:57.775Z,30.08
2022-07-28T07:23:26.012Z,29.79
2022-07-28T07:25:55.499Z,28.43
2022-07-28T07:28:23.519Z,28.15
2022-07-28T07:30:51.492Z,27.41
2022-07-28T07:33:19.830Z,27.25
2022-07-28T07:35:48.678Z,27.25
2022-07-28T07:38:18.009Z,27.35
2022-07-28T07:40:46.549Z,27.02
2022-07-28T07:43:16.192Z,26.62
2022-07-28T07:45:44.582Z,26.57
2022-07-28T07:48:12.968Z,26.70
2022-07-28T07:50:41.212Z,26.37
2022-07-28T07:53:10.311Z,26.12
2022-07-28T07:55:38.690Z,25.84
2022-07-28T07:58:06.820Z,25.50
2022-07-28T08:00:39.441Z,24.43
2022-07-28T08:03:11.191Z,24.92
2022-07-28T08:05:39.867Z,24.29
2022-07-28T08:08:08.093Z,24.40
2022-07-28T08:10:36.296Z,23.74
2022-07-28T08:13:04.805Z,23.79
2022-07-28T08:15:33.108Z,23.40
2022-07-28T08:18:02.764Z,23.18
2022-07-28T08:20:30.992Z,22.72
2022-07-28T08:22:59.313Z,22.73
2022-07-28T08:25:27.720Z,22.26
2022-07-28T08:27:55.783Z,22.31
2022-07-28T08:30:27.455Z,21.74
2022-07-28T08:32:58.403Z,21.24
2022-07-28T08:35:35.790Z,21.37
2022-07-28T08:38:05.888Z,21.74
2022-07-28T08:40:34.075Z,22.00
2022-07-28T08:43:04.892Z,21.19
2022-07-28T08:45:35.433Z,20.60
2022-07-28T08:48:08.673Z,20.54
2022-07-28T08:50:39.166Z,19.60
2022-07-28T08:53:07.969Z,19.86
2022-07-28T08:55:36.687Z,19.88
2022-07-28T08:58:05.391Z,20.83
2022-07-28T09:00:34.386Z,20.15
2022-07-28T09:03:03.418Z,20.40
2022-07-28T09:05:32.134Z,20.10
2022-07-28T09:08:02.259Z,19.63
2022-07-28T09:10:31.184Z,19.28
2022-07-28T09:12:59.564Z,19.56
2022-07-28T09:15:28.012Z,19.07
2022-07-28T09:17:56.753Z,18.01
2022-07-28T09:20:25.525Z,17.71
2022-07-28T09:23:02.387Z,17.29
2022-07-28T09:25:30.982Z,16.96
2022-07-28T09:28:02.528Z,16.60
2022-07-28T09:30:31.723Z,17.17
2022-07-28T09:33:42.202Z,15.89
2022-07-28T09:36:06.428Z,16.48
2022-07-28T09:38:42.039Z,15.93
2022-07-28T09:41:10.153Z,16.42
2022-07-28T09:43:39.263Z,16.47
2022-07-28T09:46:09.391Z,16.39
2022-07-28T09:48:38.296Z,15.90
2022-07-28T09:51:12.507Z,15.63
2022-07-28T09:53:42.336Z,15.33
2022-07-28T09:56:11.220Z,15.65
2022-07-28T09:58:39.937Z,15.69
2022-07-28T10:01:09.788Z,15.47
2022-07-28T10:03:40.565Z,15.27
2022-07-28T10:06:09.715Z,15.21
2022-07-28T10:08:43.271Z,15.26
2022-07-28T10:11:11.900Z,14.76
2022-07-28T10:13:53.897Z,14.79
2022-07-28T10:16:22.776Z,14.38
2022-07-28T10:18:50.998Z,14.63
2022-07-28T10:21:20.613Z,13.50
2022-07-28T10:23:51.387Z,14.16
2022-07-28T10:26:21.081Z,13.93
2022-07-28T10:28:51.165Z,13.72
2022-07-28T10:31:27.613Z,12.76
2022-07-28T10:33:55.901Z,12.76
2022-07-28T10:36:25.586Z,12.66
2022-07-28T10:38:59.582Z,12.19
2022-07-28T10:41:29.975Z,12.66
2022-07-28T10:43:58.429Z,11.86
2022-07-28T10:46:27.192Z,12.39
2022-07-28T10:48:55.552Z,11.80
2022-07-28T10:51:28.338Z,12.06
2022-07-28T10:54:03.125Z,12.19
2022-07-28T10:56:38.866Z,12.61
2022-07-28T10:59:09.614Z,12.25
2022-07-28T11:01:54.155Z,12.42
2022-07-28T11:04:52.583Z,11.63
2022-07-28T11:07:24.627Z,11.80
2022-07-28T11:09:55.057Z,11.86
2022-07-28T11:12:49.181Z,12.25
2022-07-28T11:15:32.029Z,12.22
2022-07-28T11:18:02.768Z,12.73
2022-07-28T11:21:08.687Z,12.08
2022-07-28T11:23:48.145Z,12.76
2022-07-28T11:26:37.020Z,12.61
2022-07-28T11:29:23.577Z,12.92
2022-07-28T11:32:07.484Z,12.91
2022-07-28T11:35:07.827Z,13.88
2022-07-28T11:38:12.367Z,14.13
2022-07-28T11:40:42.683Z,14.77
2022-07-28T11:43:36.426Z,15.33
2022-07-28T11:46:37.723Z,16.00
2022-07-28T11:49:18.619Z,16.41
2022-07-28T11:52:21.646Z,17.37
2022-07-28T11:54:56.415Z,18.44
2022-07-28T11:57:28.624Z,19.16
2022-07-28T12:00:02.228Z,19.24
2022-07-28T12:02:31.746Z,19.32
2022-07-28T12:05:08.522Z,19.87
2022-07-28T12:07:38.836Z,20.27
2022-07-28T12:13:28.708Z,20.83
2022-07-28T12:15:58.385Z,21.05
2022-07-28T12:18:26.511Z,21.56
2022-07-28T12:20:55.123Z,21.09
2022-07-28T12:23:44.332Z,20.50
2022-07-28T12:26:31.454Z,21.68
2022-07-28T12:29:00.212Z,21.67
2022-07-28T12:31:33.222Z,22.37
2022-07-28T12:34:01.617Z,22.19
2022-07-28T12:36:29.605Z,22.12
2022-07-28T12:38:57.556Z,21.71
2022-07-28T12:41:25.440Z,22.31
2022-07-28T12:43:53.828Z,22.48
2022-07-28T12:46:23.661Z,22.23
2022-07-28T12:48:58.756Z,22.67
2022-07-28T12:51:36.880Z,22.10
2022-07-28T12:54:06.814Z,22.92
2022-07-28T12:56:48.371Z,23.01
2022-07-28T12:59:18.468Z,22.56
2022-07-28T13:01:50.866Z,23.03
2022-07-28T13:04:40.577Z,23.07
2022-07-28T13:07:11.011Z,23.23
2022-07-28T13:09:49.050Z,23.22
2022-07-28T13:12:24.329Z,23.55
2022-07-28T13:14:54.893Z,23.66
2022-07-28T13:17:24.758Z,24.34
2022-07-28T13:20:04.270Z,24.00
2022-07-28T13:22:33.908Z,23.94
2022-07-28T13:25:02.582Z,23.69
2022-07-28T13:27:32.624Z,23.86
2022-07-28T13:30:01.037Z,24.07
2022-07-28T13:32:36.569Z,23.61
2022-07-28T13:35:15.210Z,23.82
2022-07-28T13:37:44.307Z,23.94
2022-07-28T13:40:13.411Z,23.72
2022-07-28T13:42:53.219Z,23.01
2022-07-28T13:45:25.296Z,23.66
2022-07-28T13:47:58.153Z,23.69
2022-07-28T13:50:27.940Z,23.42
2022-07-28T13:52:56.274Z,23.50
2022-07-28T13:55:24.441Z,23.52
2022-07-28T13:57:55.242Z,23.44
2022-07-28T14:00:25.076Z,23.46
2022-07-28T14:02:53.538Z,22.81
2022-07-28T14:05:22.008Z,23.00
2022-07-28T14:07:51.511Z,23.70
2022-07-28T14:10:19.642Z,23.40
2022-07-28T14:12:47.826Z,23.16
2022-07-28T14:15:16.274Z,23.78
2022-07-28T14:17:46.175Z,23.86
2022-07-28T14:20:14.953Z,23.66
2022-07-28T14:22:43.230Z,23.48
2022-07-28T14:25:20.521Z,24.10
2022-07-28T14:27:49.185Z,24.46
2022-07-28T14:30:17.337Z,24.46
2022-07-28T14:32:45.878Z,24.45
2022-07-28T14:35:14.010Z,24.57
2022-07-28T14:38:23.163Z,24.78
2022-07-28T14:40:32.142Z,25.00
2022-07-28T14:43:03.356Z,24.63
2022-07-28T14:45:51.524Z,24.79
2022-07-28T14:48:27.698Z,25.10
2022-07-28T14:50:57.205Z,25.26
2022-07-28T14:53:27.707Z,24.63
2022-07-28T14:55:57.741Z,25.17
2022-07-28T14:58:26.061Z,24.71
2022-07-28T15:00:54.626Z,24.71
2022-07-28T15:03:22.853Z,25.11
2022-07-28T15:05:50.913Z,24.55
2022-07-28T15:08:19.006Z,25.16
2022-07-28T15:10:49.080Z,25.38
2022-07-28T15:13:18.710Z,25.15
2022-07-28T15:15:46.795Z,24.72
2022-07-28T15:18:14.850Z,25.05
2022-07-28T15:20:43.613Z,25.40
2022-07-28T15:23:11.814Z,25.27
2022-07-28T15:25:40.015Z,25.13
2022-07-28T15:28:08.451Z,25.22
2022-07-28T15:30:49.169Z,25.71
2022-07-28T15:33:20.442Z,25.49
2022-07-28T15:35:56.544Z,25.43
2022-07-28T15:38:29.219Z,25.81
2022-07-28T15:40:58.918Z,25.96
2022-07-28T15:43:27.496Z,25.70
2022-07-28T15:45:59.331Z,25.78
2022-07-28T15:48:27.839Z,25.83
2022-07-28T15:50:57.257Z,25.31
2022-07-28T15:53:25.831Z,26.00
2022-07-28T15:55:57.271Z,25.66
2022-07-28T15:58:27.357Z,26.12
2022-07-28T16:00:57.285Z,25.65
2022-07-28T16:03:29.652Z,25.98
2022-07-28T16:05:58.942Z,25.63
2022-07-28T16:08:27.494Z,26.02
2022-07-28T16:10:55.884Z,25.92
2022-07-28T16:13:36.763Z,26.03
2022-07-28T16:16:08.530Z,26.30
2022-07-28T16:18:37.685Z,26.54
2022-07-28T16:21:05.889Z,26.22
2022-07-28T16:23:34.031Z,26.14
2022-07-28T16:26:01.987Z,26.61
2022-07-28T16:28:29.982Z,26.44
2022-07-28T16:30:58.259Z,26.90
2022-07-28T16:33:33.634Z,26.27
2022-07-28T16:36:02.344Z,26.35
2022-07-28T16:38:30.604Z,26.95
2022-07-28T16:40:58.809Z,26.94
2022-07-28T16:43:27.274Z,27.32
2022-07-28T16:45:55.517Z,26.57
2022-07-28T16:48:23.966Z,26.49
2022-07-28T16:50:54.002Z,26.96
2022-07-28T16:53:22.148Z,27.22
2022-07-28T16:55:52.228Z,27.10
2022-07-28T16:58:22.469Z,26.67
2022-07-28T17:00:51.289Z,27.33
2022-07-28T17:03:21.908Z,27.08
2022-07-28T17:05:51.889Z,27.38
2022-07-28T17:08:22.201Z,26.99
2022-07-28T17:10:50.562Z,27.49
2022-07-28T17:13:19.860Z,27.30
2022-07-28T17:15:49.493Z,27.58
2022-07-28T17:18:18.613Z,27.64
2022-07-28T17:20:47.590Z,27.80
2022-07-28T17:23:16.009Z,27.84
2022-07-28T17:26:16.091Z,27.84
2022-07-28T17:28:34.849Z,27.95
2022-07-28T17:31:03.376Z,27.50
2022-07-28T17:33:31.912Z,27.54
2022-07-28T17:36:00.788Z,28.07
2022-07-28T17:38:33.075Z,28.36
2022-07-28T17:41:05.468Z,28.37
2022-07-28T17:43:33.837Z,28.31
2022-07-28T17:46:02.857Z,27.74
2022-07-28T17:48:38.448Z,28.70
2022-07-28T17:51:06.898Z,28.45
2022-07-28T17:53:38.965Z,28.81
2022-07-28T17:56:11.366Z,28.34
2022-07-28T17:58:39.510Z,28.85
2022-07-28T18:01:11.937Z,28.99
2022-07-28T18:03:56.807Z,28.80
2022-07-28T18:06:29.025Z,28.54
2022-07-28T18:08:57.045Z,29.10
2022-07-28T18:11:28.079Z,28.90
2022-07-28T18:14:04.395Z,28.96
2022-07-28T18:16:33.283Z,28.88
2022-07-28T18:19:02.044Z,29.00
2022-07-28T18:21:30.060Z,29.04
2022-07-28T18:23:59.294Z,28.94
2022-07-28T18:26:30.311Z,29.22
2022-07-28T18:28:58.631Z,29.51
2022-07-28T18:31:28.859Z,29.24
2022-07-28T18:33:57.069Z,29.27
2022-07-28T18:36:25.218Z,29.46
2022-07-28T18:38:53.684Z,29.49
2022-07-28T18:41:22.104Z,29.27
2022-07-28T18:43:52.131Z,30.10
2022-07-28T18:46:22.799Z,29.63
2022-07-28T18:48:57.298Z,29.47
2022-07-28T18:51:25.780Z,30.11
2022-07-28T18:53:53.954Z,29.91
2022-07-28T18:56:22.552Z,29.96
2022-07-28T18:58:54.405Z,29.82
2022-07-28T19:01:22.663Z,29.91
2022-07-28T19:03:52.949Z,30.07
2022-07-28T19:06:23.990Z,29.95
2022-07-28T19:08:51.956Z,30.34
2022-07-28T19:11:20.379Z,30.27
2022-07-28T19:13:48.460Z,30.21
2022-07-28T19:16:19.103Z,30.45
2022-07-28T19:18:47.147Z,30.79
2022-07-28T19:21:22.413Z,30.71
2022-07-28T19:23:51.180Z,30.78
2022-07-28T19:26:19.295Z,30.72
2022-07-28T19:28:47.355Z,30.93
2022-07-28T19:31:15.542Z,31.51
2022-07-28T19:33:45.502Z,31.20
2022-07-28T19:36:14.838Z,30.75
2022-07-28T19:38:46.928Z,31.40
2022-07-28T19:41:16.514Z,31.38
2022-07-28T19:46:12.232Z,31.63
2022-07-28T19:48:42.699Z,31.49
2022-07-28T19:51:12.159Z,31.95
2022-07-28T19:53:40.177Z,31.97
2022-07-28T19:56:09.080Z,31.94
2022-07-28T19:58:37.845Z,31.80
2022-07-28T20:01:06.057Z,32.33
2022-07-28T20:04:01.057Z,32.43
2022-07-28T20:06:24.945Z,32.43
2022-07-28T20:08:54.205Z,32.58
2022-07-28T20:11:22.367Z,32.44
2022-07-28T20:13:53.753Z,32.30
2022-07-28T20:16:22.449Z,32.68
2022-07-28T20:18:50.536Z,32.63
2022-07-28T20:21:21.376Z,32.77
2022-07-28T20:23:52.417Z,32.48
2022-07-28T20:26:24.003Z,32.80
2022-07-28T20:28:52.093Z,32.32
2022-07-28T20:31:20.370Z,32.64
2022-07-28T20:33:48.641Z,32.65
2022-07-28T20:36:16.820Z,32.46
2022-07-28T20:38:45.197Z,32.59
2022-07-28T20:41:16.340Z,32.75
2022-07-28T20:43:44.451Z,32.71
2022-07-28T20:46:12.397Z,32.81
2022-07-28T20:48:40.359Z,32.64
2022-07-28T20:51:08.380Z,32.64
2022-07-28T20:53:37.487Z,32.54
2022-07-28T20:56:06.432Z,32.78
2022-07-28T20:58:35.653Z,33.11
2022-07-28T21:01:03.570Z,32.46
2022-07-28T21:03:31.671Z,33.13
2022-07-28T21:05:59.506Z,32.84
2022-07-28T21:08:27.911Z,32.70
2022-07-28T21:10:55.790Z,33.02
2022-07-28T21:13:23.842Z,32.77
2022-07-28T21:15:53.185Z,33.07
2022-07-28T21:18:21.130Z,32.64
2022-07-28T21:20:49.059Z,32.76
2022-07-28T21:23:18.855Z,33.25
2022-07-28T21:25:48.518Z,32.79
2022-07-28T21:28:34.323Z,32.84
2022-07-28T21:31:03.662Z,33.00
2022-07-28T21:33:31.640Z,33.40
2022-07-28T21:35:59.522Z,33.06
2022-07-28T21:38:27.409Z,33.09
2022-07-28T21:40:55.262Z,33.39
2022-07-28T21:43:23.277Z,33.35
2022-07-28T21:45:52.005Z,32.93
2022-07-28T21:48:23.861Z,33.19
2022-07-28T21:50:51.881Z,33.28
2022-07-28T21:53:19.820Z,33.38
2022-07-28T21:55:47.775Z,33.03
2022-07-28T21:58:16.157Z,33.21
2022-07-28T22:00:44.268Z,33.26
2022-07-28T22:03:12.250Z,33.57
2022-07-28T22:05:41.618Z,33.54
2022-07-28T22:08:09.682Z,33.27
2022-07-28T22:10:37.647Z,33.48
2022-07-28T22:13:05.630Z,33.62
2022-07-28T22:15:33.504Z,33.31
2022-07-28T22:18:01.471Z,33.53
2022-07-28T22:20:29.337Z,33.37
2022-07-28T22:22:58.683Z,33.05
2022-07-28T22:25:26.507Z,33.48
2022-07-28T22:27:54.460Z,33.76
2022-07-28T22:30:22.332Z,33.45
2022-07-28T22:32:50.356Z,33.65
2022-07-28T22:35:18.214Z,33.66
2022-07-28T22:37:46.211Z,34.07
2022-07-28T22:40:16.123Z,33.68
2022-07-28T22:42:44.227Z,33.91
2022-07-28T22:45:12.493Z,33.92
2022-07-28T22:47:40.395Z,33.84
2022-07-28T22:50:09.083Z,34.42
2022-07-28T22:52:36.923Z,34.17
2022-07-28T22:55:05.557Z,33.97
2022-07-28T22:57:34.861Z,34.64
2022-07-28T23:00:02.866Z,34.65
2022-07-28T23:02:32.235Z,34.22
2022-07-28T23:05:01.127Z,34.34
2022-07-28T23:07:52.843Z,34.80
2022-07-28T23:10:16.807Z,34.62
2022-07-28T23:12:46.148Z,34.71
2022-07-28T23:15:13.954Z,34.62
2022-07-28T23:17:42.113Z,34.47
2022-07-28T23:20:11.289Z,34.91
2022-07-28T23:22:39.272Z,34.52
2022-07-28T23:25:07.735Z,35.01
2022-07-28T23:27:35.631Z,34.76
2022-07-28T23:30:05.826Z,35.09
2022-07-28T23:32:33.750Z,35.06
2022-07-28T23:35:01.636Z,34.83
2022-07-28T23:37:29.908Z,34.80
2022-07-28T23:39:57.856Z,34.80
2022-07-28T23:42:25.734Z,35.49
2022-07-28T23:44:53.585Z,35.33
2022-07-28T23:47:24.269Z,35.00
2022-07-28T23:49:52.213Z,35.06
2022-07-28T23:52:20.084Z,35.52
2022-07-28T23:54:47.932Z,35.30
2022-07-28T23:57:15.925Z,35.21
2022-07-28T23:59:43.809Z,35.83
